sensor_id;sensor_type;location;lat;lon;timestamp;temperature;humidity
2603;DHT22;1311;47.966;7.958;2023-08-06T00:00:39;16.40;99.90
2603;DHT22;1311;47.966;7.958;2023-08-06T00:03:06;16.30;99.90
2603;DHT22;1311;47.966;7.958;2023-08-06T00:05:34;16.20;99.90
2603;DHT22;1311;47.966;7.958;2023-08-06T00:08:01;16.10;99.90
2603;DHT22;1311;47.966;7.958;2023-08-06T00:10:28;16.00;99.90
2603;DHT22;1311;47.966;7.958;2023-08-06T00:12:54;15.90;99.90
2603;DHT22;1311;47.966;7.958;2023-08-06T00:15:21;15.90;99.90
2603;DHT22;1311;47.966;7.958;2023-08-06T00:17:48;15.90;99.90
2603;DHT22;1311;47.966;7.958;2023-08-06T00:20:15;15.80;99.90
2603;DHT22;1311;47.966;7.958;2023-08-06T00:22:43;15.70;99.90
2603;DHT22;1311;47.966;7.958;2023-08-06T00:25:10;15.70;99.90
2603;DHT22;1311;47.966;7.958;2023-08-06T00:27:36;15.60;99.90
2603;DHT22;1311;47.966;7.958;2023-08-06T00:30:04;15.60;99.90
2603;DHT22;1311;47.966;7.958;2023-08-06T00:32:31;15.50;99.90
2603;DHT22;1311;47.966;7.958;2023-08-06T00:34:58;15.50;99.90
2603;DHT22;1311;47.966;7.958;2023-08-06T00:37:25;15.50;99.90
2603;DHT22;1311;47.966;7.958;2023-08-06T00:39:53;15.50;99.90
2603;DHT22;1311;47.966;7.958;2023-08-06T00:42:19;15.50;99.90
2603;DHT22;1311;47.966;7.958;2023-08-06T00:44:48;15.50;99.90
2603;DHT22;1311;47.966;7.958;2023-08-06T00:47:15;15.50;99.90
2603;DHT22;1311;47.966;7.958;2023-08-06T00:49:42;15.50;99.90
2603;DHT22;1311;47.966;7.958;2023-08-06T00:52:09;15.50;99.90
2603;DHT22;1311;47.966;7.958;2023-08-06T00:54:36;15.50;99.90
2603;DHT22;1311;47.966;7.958;2023-08-06T00:57:05;15.50;99.90
2603;DHT22;1311;47.966;7.958;2023-08-06T00:59:34;15.40;99.90
2603;DHT22;1311;47.966;7.958;2023-08-06T01:02:00;15.50;99.90
2603;DHT22;1311;47.966;7.958;2023-08-06T01:04:27;15.50;99.90
2603;DHT22;1311;47.966;7.958;2023-08-06T01:07:02;15.50;99.90
2603;DHT22;1311;47.966;7.958;2023-08-06T01:09:35;15.50;99.90
2603;DHT22;1311;47.966;7.958;2023-08-06T01:12:14;15.60;99.90
2603;DHT22;1311;47.966;7.958;2023-08-06T01:14:53;15.60;99.90
2603;DHT22;1311;47.966;7.958;2023-08-06T01:17:21;15.60;99.90
2603;DHT22;1311;47.966;7.958;2023-08-06T01:19:49;15.60;99.90
2603;DHT22;1311;47.966;7.958;2023-08-06T01:22:18;15.60;99.90
2603;DHT22;1311;47.966;7.958;2023-08-06T01:24:47;15.70;99.90
2603;DHT22;1311;47.966;7.958;2023-08-06T01:27:17;15.70;99.90
2603;DHT22;1311;47.966;7.958;2023-08-06T01:29:51;15.70;99.90
2603;DHT22;1311;47.966;7.958;2023-08-06T01:32:23;15.80;99.90
2603;DHT22;1311;47.966;7.958;2023-08-06T01:34:52;15.80;99.90
2603;DHT22;1311;47.966;7.958;2023-08-06T01:37:21;15.80;99.90
2603;DHT22;1311;47.966;7.958;2023-08-06T01:39:48;15.90;99.90
2603;DHT22;1311;47.966;7.958;2023-08-06T01:42:14;15.90;99.90
2603;DHT22;1311;47.966;7.958;2023-08-06T01:44:41;15.90;99.90
2603;DHT22;1311;47.966;7.958;2023-08-06T01:47:08;16.00;99.90
2603;DHT22;1311;47.966;7.958;2023-08-06T01:49:35;16.00;99.90
2603;DHT22;1311;47.966;7.958;2023-08-06T01:52:01;16.00;99.90
2603;DHT22;1311;47.966;7.958;2023-08-06T01:54:29;16.00;99.90
2603;DHT22;1311;47.966;7.958;2023-08-06T01:56:56;16.00;99.90
2603;DHT22;1311;47.966;7.958;2023-08-06T01:59:24;16.00;99.90
2603;DHT22;1311;47.966;7.958;2023-08-06T02:01:50;16.00;99.90
2603;DHT22;1311;47.966;7.958;2023-08-06T02:04:17;16.00;99.90
2603;DHT22;1311;47.966;7.958;2023-08-06T02:06:44;16.00;99.90
2603;DHT22;1311;47.966;7.958;2023-08-06T02:09:10;16.00;99.90
2603;DHT22;1311;47.966;7.958;2023-08-06T02:11:39;16.10;99.90
2603;DHT22;1311;47.966;7.958;2023-08-06T02:14:05;16.10;99.90
2603;DHT22;1311;47.966;7.958;2023-08-06T02:16:32;16.10;99.90
2603;DHT22;1311;47.966;7.958;2023-08-06T02:18:59;16.10;99.90
2603;DHT22;1311;47.966;7.958;2023-08-06T02:21:25;16.00;99.90
2603;DHT22;1311;47.966;7.958;2023-08-06T02:23:52;15.90;99.90
2603;DHT22;1311;47.966;7.958;2023-08-06T02:26:19;15.90;99.90
2603;DHT22;1311;47.966;7.958;2023-08-06T02:28:47;15.90;99.90
2603;DHT22;1311;47.966;7.958;2023-08-06T02:31:14;15.80;99.90
2603;DHT22;1311;47.966;7.958;2023-08-06T02:33:40;15.80;99.90
2603;DHT22;1311;47.966;7.958;2023-08-06T02:36:07;15.60;99.90
2603;DHT22;1311;47.966;7.958;2023-08-06T02:38:34;15.30;99.90
2603;DHT22;1311;47.966;7.958;2023-08-06T02:41:02;15.30;99.90
2603;DHT22;1311;47.966;7.958;2023-08-06T02:43:29;15.10;99.90
2603;DHT22;1311;47.966;7.958;2023-08-06T02:45:58;15.10;99.90
2603;DHT22;1311;47.966;7.958;2023-08-06T02:48:25;15.00;99.90
2603;DHT22;1311;47.966;7.958;2023-08-06T02:50:51;15.00;99.90
2603;DHT22;1311;47.966;7.958;2023-08-06T02:53:18;14.90;99.90
2603;DHT22;1311;47.966;7.958;2023-08-06T02:55:46;14.80;99.90
2603;DHT22;1311;47.966;7.958;2023-08-06T02:58:14;14.80;99.90
2603;DHT22;1311;47.966;7.958;2023-08-06T03:00:41;14.70;99.90
2603;DHT22;1311;47.966;7.958;2023-08-06T03:03:10;14.70;99.90
2603;DHT22;1311;47.966;7.958;2023-08-06T03:05:36;14.60;99.90
2603;DHT22;1311;47.966;7.958;2023-08-06T03:08:03;14.60;99.90
2603;DHT22;1311;47.966;7.958;2023-08-06T03:10:30;14.60;99.90
2603;DHT22;1311;47.966;7.958;2023-08-06T03:12:57;14.60;99.90
2603;DHT22;1311;47.966;7.958;2023-08-06T03:15:24;14.50;99.90
2603;DHT22;1311;47.966;7.958;2023-08-06T03:17:51;14.40;99.90
2603;DHT22;1311;47.966;7.958;2023-08-06T03:20:19;14.40;99.90
2603;DHT22;1311;47.966;7.958;2023-08-06T03:22:45;14.30;99.90
2603;DHT22;1311;47.966;7.958;2023-08-06T03:25:12;14.30;99.90
2603;DHT22;1311;47.966;7.958;2023-08-06T03:27:39;14.40;99.90
2603;DHT22;1311;47.966;7.958;2023-08-06T03:30:07;14.30;99.90
2603;DHT22;1311;47.966;7.958;2023-08-06T03:32:34;14.30;99.90
2603;DHT22;1311;47.966;7.958;2023-08-06T03:35:01;14.20;99.90
2603;DHT22;1311;47.966;7.958;2023-08-06T03:37:29;14.20;99.90
2603;DHT22;1311;47.966;7.958;2023-08-06T03:39:55;14.10;99.90
2603;DHT22;1311;47.966;7.958;2023-08-06T03:42:22;14.10;99.90
2603;DHT22;1311;47.966;7.958;2023-08-06T03:44:49;14.10;99.90
2603;DHT22;1311;47.966;7.958;2023-08-06T03:47:16;14.00;99.90
2603;DHT22;1311;47.966;7.958;2023-08-06T03:49:42;14.00;99.90
2603;DHT22;1311;47.966;7.958;2023-08-06T03:52:09;14.00;99.90
2603;DHT22;1311;47.966;7.958;2023-08-06T03:54:37;14.00;99.90
2603;DHT22;1311;47.966;7.958;2023-08-06T03:57:05;13.90;99.90
2603;DHT22;1311;47.966;7.958;2023-08-06T03:59:32;13.80;99.90
2603;DHT22;1311;47.966;7.958;2023-08-06T04:01:58;13.70;99.90
2603;DHT22;1311;47.966;7.958;2023-08-06T04:04:25;13.70;99.90
2603;DHT22;1311;47.966;7.958;2023-08-06T04:06:52;13.60;99.90
2603;DHT22;1311;47.966;7.958;2023-08-06T04:09:19;13.50;99.90
2603;DHT22;1311;47.966;7.958;2023-08-06T04:11:47;13.40;99.90
2603;DHT22;1311;47.966;7.958;2023-08-06T04:14:14;13.40;99.90
2603;DHT22;1311;47.966;7.958;2023-08-06T04:16:40;13.40;99.90
2603;DHT22;1311;47.966;7.958;2023-08-06T04:19:07;13.50;99.90
2603;DHT22;1311;47.966;7.958;2023-08-06T04:21:34;13.60;99.90
2603;DHT22;1311;47.966;7.958;2023-08-06T04:24:00;13.60;99.90
2603;DHT22;1311;47.966;7.958;2023-08-06T04:26:27;13.60;99.90
2603;DHT22;1311;47.966;7.958;2023-08-06T04:28:55;13.70;99.90
2603;DHT22;1311;47.966;7.958;2023-08-06T04:31:22;13.80;99.90
2603;DHT22;1311;47.966;7.958;2023-08-06T04:33:49;13.70;99.90
2603;DHT22;1311;47.966;7.958;2023-08-06T04:36:16;13.70;99.90
2603;DHT22;1311;47.966;7.958;2023-08-06T04:38:43;13.80;99.90
2603;DHT22;1311;47.966;7.958;2023-08-06T04:41:12;13.80;99.90
2603;DHT22;1311;47.966;7.958;2023-08-06T04:43:39;13.80;99.90
2603;DHT22;1311;47.966;7.958;2023-08-06T04:46:07;13.90;99.90
2603;DHT22;1311;47.966;7.958;2023-08-06T04:48:34;13.90;99.90
2603;DHT22;1311;47.966;7.958;2023-08-06T04:51:01;13.90;99.90
2603;DHT22;1311;47.966;7.958;2023-08-06T04:53:27;13.80;99.90
2603;DHT22;1311;47.966;7.958;2023-08-06T04:55:54;13.80;99.90
2603;DHT22;1311;47.966;7.958;2023-08-06T04:58:21;13.90;99.90
2603;DHT22;1311;47.966;7.958;2023-08-06T05:00:47;13.90;99.90
2603;DHT22;1311;47.966;7.958;2023-08-06T05:03:16;13.90;99.90
2603;DHT22;1311;47.966;7.958;2023-08-06T05:05:42;13.90;99.90
2603;DHT22;1311;47.966;7.958;2023-08-06T05:08:14;13.90;99.90
2603;DHT22;1311;47.966;7.958;2023-08-06T05:10:42;13.90;99.90
2603;DHT22;1311;47.966;7.958;2023-08-06T05:13:09;13.90;99.90
2603;DHT22;1311;47.966;7.958;2023-08-06T05:15:36;13.90;99.90
2603;DHT22;1311;47.966;7.958;2023-08-06T05:18:03;13.80;99.90
2603;DHT22;1311;47.966;7.958;2023-08-06T05:20:31;13.70;99.90
2603;DHT22;1311;47.966;7.958;2023-08-06T05:22:58;13.70;99.90
2603;DHT22;1311;47.966;7.958;2023-08-06T05:25:24;13.70;99.90
2603;DHT22;1311;47.966;7.958;2023-08-06T05:27:51;13.60;99.90
2603;DHT22;1311;47.966;7.958;2023-08-06T05:30:18;13.50;99.90
2603;DHT22;1311;47.966;7.958;2023-08-06T05:32:45;13.50;99.90
2603;DHT22;1311;47.966;7.958;2023-08-06T05:35:12;13.50;99.90
2603;DHT22;1311;47.966;7.958;2023-08-06T05:37:40;13.40;99.90
2603;DHT22;1311;47.966;7.958;2023-08-06T05:40:07;13.40;99.90
2603;DHT22;1311;47.966;7.958;2023-08-06T05:42:34;13.40;99.90
2603;DHT22;1311;47.966;7.958;2023-08-06T05:45:01;13.40;99.90
2603;DHT22;1311;47.966;7.958;2023-08-06T05:47:28;13.40;99.90
2603;DHT22;1311;47.966;7.958;2023-08-06T05:49:55;13.40;99.90
2603;DHT22;1311;47.966;7.958;2023-08-06T05:52:21;13.50;99.90
2603;DHT22;1311;47.966;7.958;2023-08-06T05:54:49;13.40;99.90
2603;DHT22;1311;47.966;7.958;2023-08-06T05:57:16;13.40;99.90
2603;DHT22;1311;47.966;7.958;2023-08-06T05:59:43;13.40;99.90
2603;DHT22;1311;47.966;7.958;2023-08-06T06:02:10;13.40;99.90
2603;DHT22;1311;47.966;7.958;2023-08-06T06:04:37;13.40;99.90
2603;DHT22;1311;47.966;7.958;2023-08-06T06:07:04;13.40;99.90
2603;DHT22;1311;47.966;7.958;2023-08-06T06:09:31;13.30;99.90
2603;DHT22;1311;47.966;7.958;2023-08-06T06:11:59;13.40;99.90
2603;DHT22;1311;47.966;7.958;2023-08-06T06:14:25;13.40;99.90
2603;DHT22;1311;47.966;7.958;2023-08-06T06:16:52;13.40;99.90
2603;DHT22;1311;47.966;7.958;2023-08-06T06:19:19;13.50;99.90
2603;DHT22;1311;47.966;7.958;2023-08-06T06:21:46;13.50;99.90
2603;DHT22;1311;47.966;7.958;2023-08-06T06:24:13;13.70;99.90
2603;DHT22;1311;47.966;7.958;2023-08-06T06:26:39;13.80;99.90
2603;DHT22;1311;47.966;7.958;2023-08-06T06:29:07;13.90;99.90
2603;DHT22;1311;47.966;7.958;2023-08-06T06:31:34;13.80;99.90
2603;DHT22;1311;47.966;7.958;2023-08-06T06:34:01;13.70;99.90
2603;DHT22;1311;47.966;7.958;2023-08-06T06:36:28;13.70;99.90
2603;DHT22;1311;47.966;7.958;2023-08-06T06:38:54;13.60;99.90
2603;DHT22;1311;47.966;7.958;2023-08-06T06:41:21;13.60;99.90
2603;DHT22;1311;47.966;7.958;2023-08-06T06:43:48;13.50;99.90
2603;DHT22;1311;47.966;7.958;2023-08-06T06:46:16;13.60;99.90
2603;DHT22;1311;47.966;7.958;2023-08-06T06:48:43;13.60;99.90
2603;DHT22;1311;47.966;7.958;2023-08-06T06:51:09;13.60;99.90
2603;DHT22;1311;47.966;7.958;2023-08-06T06:53:36;13.70;99.90
2603;DHT22;1311;47.966;7.958;2023-08-06T06:56:04;13.90;99.90
2603;DHT22;1311;47.966;7.958;2023-08-06T06:58:31;13.80;99.90
2603;DHT22;1311;47.966;7.958;2023-08-06T07:00:58;13.80;99.90
2603;DHT22;1311;47.966;7.958;2023-08-06T07:03:26;13.60;99.90
2603;DHT22;1311;47.966;7.958;2023-08-06T07:05:57;13.60;99.90
2603;DHT22;1311;47.966;7.958;2023-08-06T07:08:24;13.70;99.90
2603;DHT22;1311;47.966;7.958;2023-08-06T07:10:50;13.70;99.90
2603;DHT22;1311;47.966;7.958;2023-08-06T07:13:17;13.70;99.90
2603;DHT22;1311;47.966;7.958;2023-08-06T07:15:44;13.70;99.90
2603;DHT22;1311;47.966;7.958;2023-08-06T07:18:10;13.70;99.90
2603;DHT22;1311;47.966;7.958;2023-08-06T07:20:38;13.70;99.90
2603;DHT22;1311;47.966;7.958;2023-08-06T07:23:05;13.70;99.90
2603;DHT22;1311;47.966;7.958;2023-08-06T07:25:32;13.80;99.90
2603;DHT22;1311;47.966;7.958;2023-08-06T07:27:59;13.90;99.90
2603;DHT22;1311;47.966;7.958;2023-08-06T07:30:27;13.90;99.90
2603;DHT22;1311;47.966;7.958;2023-08-06T07:32:54;13.90;99.90
2603;DHT22;1311;47.966;7.958;2023-08-06T07:35:21;14.00;99.90
2603;DHT22;1311;47.966;7.958;2023-08-06T07:37:49;14.00;99.90
2603;DHT22;1311;47.966;7.958;2023-08-06T07:40:16;14.10;99.90
2603;DHT22;1311;47.966;7.958;2023-08-06T07:42:43;14.20;99.90
2603;DHT22;1311;47.966;7.958;2023-08-06T07:45:10;14.30;99.90
2603;DHT22;1311;47.966;7.958;2023-08-06T07:47:36;14.50;99.90
2603;DHT22;1311;47.966;7.958;2023-08-06T07:50:04;14.60;99.90
2603;DHT22;1311;47.966;7.958;2023-08-06T07:52:31;14.70;99.90
2603;DHT22;1311;47.966;7.958;2023-08-06T07:54:59;14.60;99.90
2603;DHT22;1311;47.966;7.958;2023-08-06T07:57:27;14.50;99.90
2603;DHT22;1311;47.966;7.958;2023-08-06T07:59:53;14.60;99.90
2603;DHT22;1311;47.966;7.958;2023-08-06T08:02:20;14.70;99.90
2603;DHT22;1311;47.966;7.958;2023-08-06T08:04:47;14.90;99.90
2603;DHT22;1311;47.966;7.958;2023-08-06T08:07:14;15.00;99.90
2603;DHT22;1311;47.966;7.958;2023-08-06T08:09:41;14.90;99.90
2603;DHT22;1311;47.966;7.958;2023-08-06T08:12:09;14.90;99.90
2603;DHT22;1311;47.966;7.958;2023-08-06T08:14:36;14.90;99.90
2603;DHT22;1311;47.966;7.958;2023-08-06T08:17:03;15.20;99.90
2603;DHT22;1311;47.966;7.958;2023-08-06T08:19:30;15.40;99.90
2603;DHT22;1311;47.966;7.958;2023-08-06T08:21:56;15.50;99.90
2603;DHT22;1311;47.966;7.958;2023-08-06T08:24:24;15.40;99.90
2603;DHT22;1311;47.966;7.958;2023-08-06T08:26:51;15.60;99.90
2603;DHT22;1311;47.966;7.958;2023-08-06T08:29:19;15.60;99.90
2603;DHT22;1311;47.966;7.958;2023-08-06T08:31:46;15.50;99.90
2603;DHT22;1311;47.966;7.958;2023-08-06T08:34:14;15.50;99.90
2603;DHT22;1311;47.966;7.958;2023-08-06T08:36:41;15.50;99.90
2603;DHT22;1311;47.966;7.958;2023-08-06T08:39:08;15.50;99.90
2603;DHT22;1311;47.966;7.958;2023-08-06T08:41:37;15.20;99.90
2603;DHT22;1311;47.966;7.958;2023-08-06T08:44:05;15.00;99.90
2603;DHT22;1311;47.966;7.958;2023-08-06T08:46:36;14.90;99.90
2603;DHT22;1311;47.966;7.958;2023-08-06T08:49:03;14.80;99.90
2603;DHT22;1311;47.966;7.958;2023-08-06T08:51:30;14.70;99.90
2603;DHT22;1311;47.966;7.958;2023-08-06T08:53:58;14.60;99.90
2603;DHT22;1311;47.966;7.958;2023-08-06T08:56:25;14.60;99.90
2603;DHT22;1311;47.966;7.958;2023-08-06T08:58:52;14.70;99.90
2603;DHT22;1311;47.966;7.958;2023-08-06T09:01:22;14.90;99.90
2603;DHT22;1311;47.966;7.958;2023-08-06T09:03:50;15.10;99.90
2603;DHT22;1311;47.966;7.958;2023-08-06T09:06:19;15.40;99.90
2603;DHT22;1311;47.966;7.958;2023-08-06T09:08:50;15.50;99.90
2603;DHT22;1311;47.966;7.958;2023-08-06T09:11:19;15.60;99.90
2603;DHT22;1311;47.966;7.958;2023-08-06T09:13:47;15.30;99.90
2603;DHT22;1311;47.966;7.958;2023-08-06T09:16:14;15.20;99.90
2603;DHT22;1311;47.966;7.958;2023-08-06T09:18:41;15.30;99.90
2603;DHT22;1311;47.966;7.958;2023-08-06T09:21:13;15.40;99.90
2603;DHT22;1311;47.966;7.958;2023-08-06T09:23:41;15.50;99.90
2603;DHT22;1311;47.966;7.958;2023-08-06T09:26:11;15.60;99.90
2603;DHT22;1311;47.966;7.958;2023-08-06T09:28:39;15.50;99.90
2603;DHT22;1311;47.966;7.958;2023-08-06T09:31:08;15.50;99.90
2603;DHT22;1311;47.966;7.958;2023-08-06T09:33:37;15.50;99.90
2603;DHT22;1311;47.966;7.958;2023-08-06T09:36:09;15.40;99.90
2603;DHT22;1311;47.966;7.958;2023-08-06T09:38:38;15.50;99.90
2603;DHT22;1311;47.966;7.958;2023-08-06T09:41:05;15.50;99.90
2603;DHT22;1311;47.966;7.958;2023-08-06T09:43:39;15.50;99.90
2603;DHT22;1311;47.966;7.958;2023-08-06T09:46:11;15.50;99.90
2603;DHT22;1311;47.966;7.958;2023-08-06T09:48:39;15.40;99.90
2603;DHT22;1311;47.966;7.958;2023-08-06T09:51:09;15.40;99.90
2603;DHT22;1311;47.966;7.958;2023-08-06T09:53:38;15.40;99.90
2603;DHT22;1311;47.966;7.958;2023-08-06T09:56:05;15.30;99.90
2603;DHT22;1311;47.966;7.958;2023-08-06T09:58:32;15.50;99.90
2603;DHT22;1311;47.966;7.958;2023-08-06T10:01:00;15.80;99.90
2603;DHT22;1311;47.966;7.958;2023-08-06T10:03:29;16.00;99.90
2603;DHT22;1311;47.966;7.958;2023-08-06T10:05:57;16.00;99.90
2603;DHT22;1311;47.966;7.958;2023-08-06T10:08:28;16.10;99.90
2603;DHT22;1311;47.966;7.958;2023-08-06T10:10:55;15.90;99.90
2603;DHT22;1311;47.966;7.958;2023-08-06T10:13:23;15.80;99.90
2603;DHT22;1311;47.966;7.958;2023-08-06T10:15:51;15.80;99.90
2603;DHT22;1311;47.966;7.958;2023-08-06T10:18:19;15.90;99.90
2603;DHT22;1311;47.966;7.958;2023-08-06T10:20:48;15.90;99.90
2603;DHT22;1311;47.966;7.958;2023-08-06T10:23:14;16.00;99.90
2603;DHT22;1311;47.966;7.958;2023-08-06T10:25:44;16.00;99.90
2603;DHT22;1311;47.966;7.958;2023-08-06T10:28:21;15.90;99.90
2603;DHT22;1311;47.966;7.958;2023-08-06T10:30:48;15.90;99.90
2603;DHT22;1311;47.966;7.958;2023-08-06T10:33:15;15.90;99.90
2603;DHT22;1311;47.966;7.958;2023-08-06T10:35:43;15.80;99.90
2603;DHT22;1311;47.966;7.958;2023-08-06T10:38:12;15.60;99.90
2603;DHT22;1311;47.966;7.958;2023-08-06T10:40:41;15.60;99.90
2603;DHT22;1311;47.966;7.958;2023-08-06T10:43:25;15.70;99.90
2603;DHT22;1311;47.966;7.958;2023-08-06T10:45:52;15.80;99.90
2603;DHT22;1311;47.966;7.958;2023-08-06T10:48:29;15.80;99.90
2603;DHT22;1311;47.966;7.958;2023-08-06T10:50:56;16.20;99.90
2603;DHT22;1311;47.966;7.958;2023-08-06T10:53:23;16.60;99.90
2603;DHT22;1311;47.966;7.958;2023-08-06T10:55:50;16.40;99.90
2603;DHT22;1311;47.966;7.958;2023-08-06T10:58:18;16.90;99.90
2603;DHT22;1311;47.966;7.958;2023-08-06T11:00:46;16.90;99.90
2603;DHT22;1311;47.966;7.958;2023-08-06T11:03:12;16.80;99.90
2603;DHT22;1311;47.966;7.958;2023-08-06T11:05:39;16.90;99.90
2603;DHT22;1311;47.966;7.958;2023-08-06T11:08:06;16.50;99.90
2603;DHT22;1311;47.966;7.958;2023-08-06T11:10:33;16.60;99.90
2603;DHT22;1311;47.966;7.958;2023-08-06T11:13:01;16.60;99.90
2603;DHT22;1311;47.966;7.958;2023-08-06T11:15:30;16.60;99.90
2603;DHT22;1311;47.966;7.958;2023-08-06T11:17:58;16.30;99.90
2603;DHT22;1311;47.966;7.958;2023-08-06T11:20:25;16.00;99.90
2603;DHT22;1311;47.966;7.958;2023-08-06T11:22:51;15.90;99.90
2603;DHT22;1311;47.966;7.958;2023-08-06T11:25:20;15.90;99.90
2603;DHT22;1311;47.966;7.958;2023-08-06T11:27:47;16.00;99.90
2603;DHT22;1311;47.966;7.958;2023-08-06T11:30:15;15.70;99.90
2603;DHT22;1311;47.966;7.958;2023-08-06T11:32:46;15.70;99.90
2603;DHT22;1311;47.966;7.958;2023-08-06T11:35:14;15.60;99.90
2603;DHT22;1311;47.966;7.958;2023-08-06T11:37:44;15.70;99.90
2603;DHT22;1311;47.966;7.958;2023-08-06T11:40:11;16.00;99.90
2603;DHT22;1311;47.966;7.958;2023-08-06T11:42:39;15.90;99.90
2603;DHT22;1311;47.966;7.958;2023-08-06T11:45:08;16.00;99.90
2603;DHT22;1311;47.966;7.958;2023-08-06T11:47:38;16.20;99.90
2603;DHT22;1311;47.966;7.958;2023-08-06T11:50:07;16.30;99.90
2603;DHT22;1311;47.966;7.958;2023-08-06T11:52:33;16.60;99.90
2603;DHT22;1311;47.966;7.958;2023-08-06T11:55:02;16.90;99.90
2603;DHT22;1311;47.966;7.958;2023-08-06T11:57:32;17.00;99.90
2603;DHT22;1311;47.966;7.958;2023-08-06T12:00:02;17.10;99.90
2603;DHT22;1311;47.966;7.958;2023-08-06T12:02:31;17.00;99.90
2603;DHT22;1311;47.966;7.958;2023-08-06T12:05:04;17.10;99.90
2603;DHT22;1311;47.966;7.958;2023-08-06T12:07:33;17.60;99.90
2603;DHT22;1311;47.966;7.958;2023-08-06T12:10:03;18.20;99.90
2603;DHT22;1311;47.966;7.958;2023-08-06T12:12:30;18.10;99.90
2603;DHT22;1311;47.966;7.958;2023-08-06T12:14:57;17.50;99.90
2603;DHT22;1311;47.966;7.958;2023-08-06T12:17:24;16.80;99.90
2603;DHT22;1311;47.966;7.958;2023-08-06T12:19:51;16.60;99.90
2603;DHT22;1311;47.966;7.958;2023-08-06T12:22:18;16.40;99.90
2603;DHT22;1311;47.966;7.958;2023-08-06T12:24:47;16.60;99.90
2603;DHT22;1311;47.966;7.958;2023-08-06T12:27:16;16.60;99.90
2603;DHT22;1311;47.966;7.958;2023-08-06T12:29:43;16.30;99.90
2603;DHT22;1311;47.966;7.958;2023-08-06T12:32:10;15.80;99.90
2603;DHT22;1311;47.966;7.958;2023-08-06T12:34:38;15.60;99.90
2603;DHT22;1311;47.966;7.958;2023-08-06T12:37:05;16.30;99.90
2603;DHT22;1311;47.966;7.958;2023-08-06T12:39:32;16.60;99.90
2603;DHT22;1311;47.966;7.958;2023-08-06T12:42:00;16.90;99.90
2603;DHT22;1311;47.966;7.958;2023-08-06T12:44:28;17.90;99.90
2603;DHT22;1311;47.966;7.958;2023-08-06T12:46:55;18.00;99.90
2603;DHT22;1311;47.966;7.958;2023-08-06T12:49:22;17.60;99.90
2603;DHT22;1311;47.966;7.958;2023-08-06T12:51:50;17.50;99.90
2603;DHT22;1311;47.966;7.958;2023-08-06T12:54:17;17.40;99.90
2603;DHT22;1311;47.966;7.958;2023-08-06T12:56:44;17.00;99.90
2603;DHT22;1311;47.966;7.958;2023-08-06T12:59:14;16.70;99.90
2603;DHT22;1311;47.966;7.958;2023-08-06T13:01:42;16.40;99.90
2603;DHT22;1311;47.966;7.958;2023-08-06T13:04:09;15.60;99.90
2603;DHT22;1311;47.966;7.958;2023-08-06T13:06:37;15.00;99.90
2603;DHT22;1311;47.966;7.958;2023-08-06T13:09:05;15.10;99.90
2603;DHT22;1311;47.966;7.958;2023-08-06T13:11:34;15.40;99.90
2603;DHT22;1311;47.966;7.958;2023-08-06T13:14:04;16.00;99.90
2603;DHT22;1311;47.966;7.958;2023-08-06T13:16:33;16.40;99.90
2603;DHT22;1311;47.966;7.958;2023-08-06T13:19:00;17.00;99.90
2603;DHT22;1311;47.966;7.958;2023-08-06T13:21:32;17.50;99.90
2603;DHT22;1311;47.966;7.958;2023-08-06T13:24:00;17.50;99.90
2603;DHT22;1311;47.966;7.958;2023-08-06T13:26:27;17.70;99.90
2603;DHT22;1311;47.966;7.958;2023-08-06T13:28:54;18.00;99.90
2603;DHT22;1311;47.966;7.958;2023-08-06T13:31:21;18.20;99.90
2603;DHT22;1311;47.966;7.958;2023-08-06T13:33:49;18.20;99.90
2603;DHT22;1311;47.966;7.958;2023-08-06T13:36:16;17.70;99.90
2603;DHT22;1311;47.966;7.958;2023-08-06T13:38:43;17.30;99.90
2603;DHT22;1311;47.966;7.958;2023-08-06T13:41:09;17.30;99.90
2603;DHT22;1311;47.966;7.958;2023-08-06T13:43:36;17.60;99.90
2603;DHT22;1311;47.966;7.958;2023-08-06T13:46:03;17.80;99.90
2603;DHT22;1311;47.966;7.958;2023-08-06T13:48:30;17.80;99.90
2603;DHT22;1311;47.966;7.958;2023-08-06T13:50:58;17.40;99.90
2603;DHT22;1311;47.966;7.958;2023-08-06T13:53:25;17.40;99.90
2603;DHT22;1311;47.966;7.958;2023-08-06T13:55:55;17.30;99.90
2603;DHT22;1311;47.966;7.958;2023-08-06T13:58:22;17.60;99.90
2603;DHT22;1311;47.966;7.958;2023-08-06T14:00:48;17.50;99.90
2603;DHT22;1311;47.966;7.958;2023-08-06T14:03:18;17.40;99.90
2603;DHT22;1311;47.966;7.958;2023-08-06T14:05:45;17.50;99.90
2603;DHT22;1311;47.966;7.958;2023-08-06T14:08:13;17.50;99.90
2603;DHT22;1311;47.966;7.958;2023-08-06T14:10:40;16.90;99.90
2603;DHT22;1311;47.966;7.958;2023-08-06T14:13:06;16.50;99.90
2603;DHT22;1311;47.966;7.958;2023-08-06T14:15:33;16.50;99.90
2603;DHT22;1311;47.966;7.958;2023-08-06T14:18:00;16.30;99.90
2603;DHT22;1311;47.966;7.958;2023-08-06T14:20:27;16.50;99.90
2603;DHT22;1311;47.966;7.958;2023-08-06T14:22:53;16.80;99.90
2603;DHT22;1311;47.966;7.958;2023-08-06T14:25:22;17.50;99.90
2603;DHT22;1311;47.966;7.958;2023-08-06T14:27:48;17.80;99.90
2603;DHT22;1311;47.966;7.958;2023-08-06T14:30:15;17.90;99.90
2603;DHT22;1311;47.966;7.958;2023-08-06T14:32:42;18.20;99.90
2603;DHT22;1311;47.966;7.958;2023-08-06T14:35:09;18.10;99.90
2603;DHT22;1311;47.966;7.958;2023-08-06T14:37:35;17.80;99.90
2603;DHT22;1311;47.966;7.958;2023-08-06T14:40:02;16.90;99.90
2603;DHT22;1311;47.966;7.958;2023-08-06T14:42:31;15.90;99.90
2603;DHT22;1311;47.966;7.958;2023-08-06T14:44:58;15.80;99.90
2603;DHT22;1311;47.966;7.958;2023-08-06T14:47:25;16.00;99.90
2603;DHT22;1311;47.966;7.958;2023-08-06T14:49:52;16.40;99.90
2603;DHT22;1311;47.966;7.958;2023-08-06T14:52:18;16.70;99.90
2603;DHT22;1311;47.966;7.958;2023-08-06T14:54:45;16.70;99.90
2603;DHT22;1311;47.966;7.958;2023-08-06T14:57:13;16.70;99.90
2603;DHT22;1311;47.966;7.958;2023-08-06T14:59:41;16.60;99.90
2603;DHT22;1311;47.966;7.958;2023-08-06T15:02:08;16.70;99.90
2603;DHT22;1311;47.966;7.958;2023-08-06T15:04:35;16.70;99.90
2603;DHT22;1311;47.966;7.958;2023-08-06T15:07:02;16.70;99.90
2603;DHT22;1311;47.966;7.958;2023-08-06T15:09:29;16.90;99.90
2603;DHT22;1311;47.966;7.958;2023-08-06T15:11:55;17.00;99.90
2603;DHT22;1311;47.966;7.958;2023-08-06T15:14:22;16.90;99.90
2603;DHT22;1311;47.966;7.958;2023-08-06T15:16:50;17.00;99.90
2603;DHT22;1311;47.966;7.958;2023-08-06T15:19:18;17.10;99.90
2603;DHT22;1311;47.966;7.958;2023-08-06T15:21:45;16.90;99.90
2603;DHT22;1311;47.966;7.958;2023-08-06T15:24:12;16.60;99.90
2603;DHT22;1311;47.966;7.958;2023-08-06T15:26:38;16.80;99.90
2603;DHT22;1311;47.966;7.958;2023-08-06T15:29:05;16.90;99.90
2603;DHT22;1311;47.966;7.958;2023-08-06T15:31:36;16.70;99.90
2603;DHT22;1311;47.966;7.958;2023-08-06T15:34:05;16.40;99.90
2603;DHT22;1311;47.966;7.958;2023-08-06T15:36:32;16.10;99.90
2603;DHT22;1311;47.966;7.958;2023-08-06T15:38:59;15.90;99.90
2603;DHT22;1311;47.966;7.958;2023-08-06T15:41:26;15.90;99.90
2603;DHT22;1311;47.966;7.958;2023-08-06T15:43:52;15.70;99.90
2603;DHT22;1311;47.966;7.958;2023-08-06T15:46:19;15.40;99.90
2603;DHT22;1311;47.966;7.958;2023-08-06T15:48:46;15.40;99.90
2603;DHT22;1311;47.966;7.958;2023-08-06T15:51:14;15.40;99.90
2603;DHT22;1311;47.966;7.958;2023-08-06T15:53:41;15.50;99.90
2603;DHT22;1311;47.966;7.958;2023-08-06T15:56:08;15.70;99.90
2603;DHT22;1311;47.966;7.958;2023-08-06T15:58:35;15.80;99.90
2603;DHT22;1311;47.966;7.958;2023-08-06T16:01:01;15.90;99.90
2603;DHT22;1311;47.966;7.958;2023-08-06T16:03:28;15.80;99.90